Time;durP1;ratioP1;P1;durP2;ratioP2;P2;SDS_P1;SDS_P2;PMS_P1;PMS_P2;Temp;Humidity;BMP_temperature;BMP_pressure;BME280_temperature;BME280_humidity;BME280_pressure;Samples;Min_cycle;Max_cycle;Signal;HPM_P1;HPM_P2
2022/07/31 00:01:12;;;;;;;;;;;;;;;18.57;93.85;95100.94;5095896;28;1048;-47
2022/07/31 00:03:38;;;;;;;;;;;;;;;18.47;95.30;95104.09;5095588;28;1103;-47
2022/07/31 00:06:04;;;;;;;;;;;;;;;18.61;96.00;95110.28;5095613;28;990;-47
2022/07/31 00:08:30;;;;;;;;;;;;;;;18.63;95.93;95102.78;5095466;28;1044;-47
2022/07/31 00:10:56;;;;;;;;;;;;;;;18.63;95.47;95106.34;5095829;28;954;-47
2022/07/31 00:13:22;;;;;;;;;;;;;;;18.70;95.55;95111.72;5095483;28;985;-48
2022/07/31 00:15:48;;;;;;;;;;;;;;;18.82;95.28;95104.66;5095596;28;1917;-47
2022/07/31 00:18:14;;;;;;;;;;;;;;;18.95;94.11;95108.34;5095047;28;1215;-48
2022/07/31 00:20:40;;;;;;;;;;;;;;;18.92;93.61;95105.03;5095464;28;1033;-47
2022/07/31 00:23:06;;;;;;;;;;;;;;;18.92;93.25;95109.63;5095121;28;1023;-47
2022/07/31 00:25:32;;;;;;;;;;;;;;;18.79;94.06;95107.75;5095554;28;976;-47
2022/07/31 00:27:58;;;;;;;;;;;;;;;18.72;94.43;95096.97;5095273;28;986;-47
2022/07/31 00:30:24;;;;;;;;;;;;;;;18.69;94.19;95100.06;5095280;28;954;-47
2022/07/31 00:32:50;;;;;;;;;;;;;;;18.45;92.80;95089.94;5095099;28;970;-47
2022/07/31 00:35:16;;;;;;;;;;;;;;;18.46;94.12;95095.13;5095048;28;1922;-47
2022/07/31 00:37:45;;;;;;;;;;;;;;;18.30;93.99;95091.00;5094887;28;965;-47
2022/07/31 00:40:14;;;;;;;;;;;;;;;18.27;95.72;95096.00;5094933;28;1083;-47
2022/07/31 00:42:40;;;;;;;;;;;;;;;18.36;97.33;95092.03;5093458;28;1205;-47
2022/07/31 00:45:06;;;;;;;;;;;;;;;18.39;97.00;95094.31;5074590;28;1009;-47
2022/07/31 00:47:32;;;;;;;;;;;;;;;18.48;96.49;95092.22;5074539;28;990;-47
2022/07/31 00:49:58;;;;;;;;;;;;;;;18.49;96.40;95104.69;5074609;28;1045;-47
2022/07/31 00:52:24;;;;;;;;;;;;;;;18.48;97.51;95103.88;5074541;28;992;-48
2022/07/31 00:54:50;;;;;;;;;;;;;;;18.62;97.19;95104.66;5074625;28;1910;-47
2022/07/31 00:57:16;;;;;;;;;;;;;;;18.62;97.49;95109.25;5074445;28;1049;-47
2022/07/31 00:59:42;;;;;;;;;;;;;;;18.61;97.52;95103.03;5056740;28;1063;-47
2022/07/31 01:02:09;;;;;;;;;;;;;;;18.58;97.99;95105.31;5074265;28;1021;-47
2022/07/31 01:04:35;;;;;;;;;;;;;;;18.58;97.08;95099.91;5074110;28;1072;-47
2022/07/31 01:07:01;;;;;;;;;;;;;;;18.45;96.84;95112.41;5074206;28;1024;-47
2022/07/31 01:09:27;;;;;;;;;;;;;;;18.34;97.56;95110.34;5074160;28;994;-47
2022/07/31 01:11:59;;;;;;;;;;;;;;;18.30;98.60;95111.81;5074348;28;1031;-47
2022/07/31 01:14:28;;;;;;;;;;;;;;;18.27;96.79;95115.78;5073949;28;1918;-47
2022/07/31 01:16:55;;;;;;;;;;;;;;;18.31;97.01;95113.50;5074095;28;1087;-47
2022/07/31 01:19:27;;;;;;;;;;;;;;;18.27;96.95;95112.25;5073566;28;1100;-47
2022/07/31 01:22:13;;;;;;;;;;;;;;;18.30;97.58;95109.94;5074291;28;955;-48
2022/07/31 01:24:59;;;;;;;;;;;;;;;18.25;97.83;95111.59;5073862;28;1004;-47
2022/07/31 01:27:44;;;;;;;;;;;;;;;18.29;97.09;95113.69;5073720;28;1761;-48
2022/07/31 01:30:10;;;;;;;;;;;;;;;18.33;96.90;95116.81;5073863;28;993;-47
2022/07/31 01:32:38;;;;;;;;;;;;;;;18.37;96.42;95118.06;5073747;28;1020;-47
2022/07/31 01:35:07;;;;;;;;;;;;;;;18.45;95.75;95115.13;5073588;28;2004;-47
2022/07/31 01:37:35;;;;;;;;;;;;;;;18.24;94.06;95113.47;5073845;28;984;-47
2022/07/31 01:40:07;;;;;;;;;;;;;;;17.83;95.20;95106.41;5073536;28;1048;-47
2022/07/31 01:42:35;;;;;;;;;;;;;;;17.88;95.91;95111.22;5073909;28;1146;-47
2022/07/31 01:45:02;;;;;;;;;;;;;;;18.04;95.84;95105.41;5093514;28;999;-47
2022/07/31 01:47:30;;;;;;;;;;;;;;;18.03;95.96;95119.94;5094026;28;1011;-48
2022/07/31 01:49:57;;;;;;;;;;;;;;;18.03;96.66;95117.25;5093742;28;1027;-47
2022/07/31 01:52:24;;;;;;;;;;;;;;;18.03;96.39;95119.13;5093788;28;978;-47
2022/07/31 01:54:52;;;;;;;;;;;;;;;17.96;96.63;95116.41;5093377;28;1991;-47
2022/07/31 01:57:19;;;;;;;;;;;;;;;18.04;97.41;95118.06;5093869;28;1054;-47
2022/07/31 01:59:46;;;;;;;;;;;;;;;18.14;95.42;95121.22;5093652;28;986;-48
2022/07/31 02:02:14;;;;;;;;;;;;;;;18.14;94.95;95127.44;5093720;28;1206;-48
2022/07/31 02:04:40;;;;;;;;;;;;;;;18.28;93.77;95124.72;5093402;28;1020;-47
2022/07/31 02:07:07;;;;;;;;;;;;;;;18.27;94.32;95120.38;5093529;28;1022;-47
2022/07/31 02:09:33;;;;;;;;;;;;;;;18.21;94.45;95124.75;5093325;28;1031;-47
2022/07/31 02:12:00;;;;;;;;;;;;;;;17.95;93.77;95131.81;5093817;28;1048;-47
2022/07/31 02:14:26;;;;;;;;;;;;;;;17.79;95.82;95125.94;5075365;28;2050;-47
2022/07/31 02:16:52;;;;;;;;;;;;;;;17.81;94.72;95129.28;5093604;28;1110;-47
2022/07/31 02:19:19;;;;;;;;;;;;;;;17.72;95.06;95125.94;5092999;28;1343;-47
2022/07/31 02:21:45;;;;;;;;;;;;;;;17.72;95.39;95128.66;5093412;28;1875;-47
2022/07/31 02:24:12;;;;;;;;;;;;;;;17.72;94.73;95134.88;5093070;28;1225;-47
2022/07/31 02:26:39;;;;;;;;;;;;;;;17.55;94.59;95130.91;5093630;28;1028;-47
2022/07/31 02:29:07;;;;;;;;;;;;;;;17.49;95.49;95132.56;5093063;28;1048;-47
2022/07/31 02:31:33;;;;;;;;;;;;;;;17.60;94.90;95124.88;5093427;28;976;-48
2022/07/31 02:34:00;;;;;;;;;;;;;;;17.60;94.47;95128.41;5093224;28;985;-47
2022/07/31 02:36:27;;;;;;;;;;;;;;;17.53;94.94;95133.00;5093581;28;1910;-47
2022/07/31 02:38:55;;;;;;;;;;;;;;;17.47;95.21;95125.66;5093164;28;988;-47
2022/07/31 02:41:21;;;;;;;;;;;;;;;17.32;95.71;95126.69;5093062;28;1028;-47
2022/07/31 02:43:48;;;;;;;;;;;;;;;17.40;96.03;95127.56;5082473;28;1165;-47
2022/07/31 02:46:14;;;;;;;;;;;;;;;17.49;95.60;95124.44;5055079;28;1069;-47
2022/07/31 02:48:40;;;;;;;;;;;;;;;17.57;95.57;95115.31;5072960;28;1103;-47
2022/07/31 02:51:07;;;;;;;;;;;;;;;17.55;95.06;95129.03;5072737;28;1048;-48
2022/07/31 02:53:33;;;;;;;;;;;;;;;17.41;94.93;95127.31;5073336;28;1104;-47
2022/07/31 02:56:00;;;;;;;;;;;;;;;17.31;94.32;95126.88;5072596;28;1906;-47
2022/07/31 02:58:26;;;;;;;;;;;;;;;17.31;95.27;95133.13;5076289;28;1144;-47
2022/07/31 03:01:03;;;;;;;;;;;;;;;17.33;95.02;95130.22;5076692;28;1057;-47
2022/07/31 03:03:29;;;;;;;;;;;;;;;17.34;95.11;95123.78;5076756;28;961;-47
2022/07/31 03:05:55;;;;;;;;;;;;;;;17.55;94.24;95131.72;5058640;28;1053;-47
2022/07/31 03:08:21;;;;;;;;;;;;;;;17.66;94.40;95132.16;5076414;28;1092;-47
2022/07/31 03:10:47;;;;;;;;;;;;;;;17.56;94.47;95141.50;5076299;28;1025;-47
2022/07/31 03:13:14;;;;;;;;;;;;;;;17.35;93.00;95144.34;5076545;28;1068;-47
2022/07/31 03:15:40;;;;;;;;;;;;;;;17.06;94.74;95149.03;5076306;28;1988;-47
2022/07/31 03:18:06;;;;;;;;;;;;;;;16.88;96.05;95159.53;5076211;28;1096;-47
2022/07/31 03:20:33;;;;;;;;;;;;;;;16.87;95.98;95156.03;5076150;28;1048;-47
2022/07/31 03:23:00;;;;;;;;;;;;;;;17.01;97.48;95148.81;5076216;28;1020;-47
2022/07/31 03:25:26;;;;;;;;;;;;;;;17.16;98.56;95152.19;5076171;28;1052;-47
2022/07/31 03:27:53;;;;;;;;;;;;;;;17.27;98.40;95163.47;5076354;28;1037;-47
2022/07/31 03:30:23;;;;;;;;;;;;;;;17.31;97.63;95157.44;5075912;28;1033;-47
2022/07/31 03:32:51;;;;;;;;;;;;;;;17.27;97.70;95148.06;5076152;28;1127;-47
2022/07/31 03:35:17;;;;;;;;;;;;;;;17.30;97.92;95153.09;5075732;28;1937;-47
2022/07/31 03:37:44;;;;;;;;;;;;;;;17.39;98.15;95153.72;5076300;28;958;-47
2022/07/31 03:40:11;;;;;;;;;;;;;;;17.41;97.14;95150.81;5075940;28;1049;-47
2022/07/31 03:42:37;;;;;;;;;;;;;;;17.30;97.38;95150.38;5076650;28;1210;-47
2022/07/31 03:45:04;;;;;;;;;;;;;;;17.29;95.69;95156.81;5095977;28;991;-47
2022/07/31 03:47:30;;;;;;;;;;;;;;;17.24;96.22;95158.44;5096189;28;1028;-47
2022/07/31 03:49:57;;;;;;;;;;;;;;;17.26;97.04;95157.19;5077993;28;1024;-47
2022/07/31 03:52:23;;;;;;;;;;;;;;;17.30;94.90;95153.09;5095857;28;1047;-47
2022/07/31 03:54:50;;;;;;;;;;;;;;;17.10;95.27;95152.19;5096065;28;1983;-47
2022/07/31 03:57:17;;;;;;;;;;;;;;;17.10;95.68;95150.28;5095785;28;1021;-47
2022/07/31 03:59:44;;;;;;;;;;;;;;;17.20;96.54;95155.31;5095988;28;1012;-47
2022/07/31 04:02:10;;;;;;;;;;;;;;;17.30;96.38;95150.38;5095620;28;1033;-47
2022/07/31 04:04:36;;;;;;;;;;;;;;;17.35;96.51;95150.59;5095732;28;1076;-47
2022/07/31 04:07:03;;;;;;;;;;;;;;;17.51;95.60;95146.69;5095690;28;1030;-47
2022/07/31 04:09:29;;;;;;;;;;;;;;;17.53;96.31;95155.44;5095508;28;1025;-47
2022/07/31 04:11:55;;;;;;;;;;;;;;;17.54;96.43;95158.97;5095642;28;1133;-47
2022/07/31 04:14:22;;;;;;;;;;;;;;;17.62;96.55;95158.75;5095505;28;1914;-47
2022/07/31 04:16:48;;;;;;;;;;;;;;;17.78;96.30;95157.56;5095453;28;995;-47
2022/07/31 04:19:14;;;;;;;;;;;;;;;17.87;95.72;95153.66;5095269;28;1093;-47
2022/07/31 04:21:40;;;;;;;;;;;;;;;17.84;95.38;95154.06;5095598;28;966;-47
2022/07/31 04:24:06;;;;;;;;;;;;;;;17.82;96.00;95156.13;5095493;28;977;-47
2022/07/31 04:26:32;;;;;;;;;;;;;;;17.87;97.73;95160.91;5095165;28;1202;-47
2022/07/31 04:28:58;;;;;;;;;;;;;;;17.98;97.51;95156.78;5095812;28;957;-47
2022/07/31 04:31:24;;;;;;;;;;;;;;;18.16;98.27;95154.28;5094972;28;1037;-47
2022/07/31 04:33:51;;;;;;;;;;;;;;;18.32;97.10;95156.56;5095126;28;1025;-47
2022/07/31 04:36:17;;;;;;;;;;;;;;;18.39;96.83;95153.88;5095051;28;1909;-47
2022/07/31 04:38:43;;;;;;;;;;;;;;;18.51;97.40;95156.75;5095117;28;1087;-47
2022/07/31 04:41:08;;;;;;;;;;;;;;;18.62;97.94;95160.72;5094979;28;1012;-47
2022/07/31 04:43:34;;;;;;;;;;;;;;;18.75;98.31;95168.81;5086154;28;1149;-47
2022/07/31 04:46:00;;;;;;;;;;;;;;;18.90;97.22;95166.72;5075052;28;1006;-47
2022/07/31 04:48:26;;;;;;;;;;;;;;;18.90;97.50;95163.19;5074558;28;962;-47
2022/07/31 04:50:52;;;;;;;;;;;;;;;18.91;97.32;95167.53;5074749;28;977;-48
2022/07/31 04:53:18;;;;;;;;;;;;;;;18.86;99.15;95172.78;5074697;28;1074;-47
2022/07/31 04:56:32;;;;;;;;;;;;;;;18.79;96.93;95175.47;5074307;28;1910;-48
2022/07/31 04:58:31;;;;;;;;;;;;;;;18.89;98.15;95181.31;5074462;28;1658;-47
2022/07/31 05:00:57;;;;;;;;;;;;;;;18.97;98.80;95177.56;5074259;28;982;-47
2022/07/31 05:03:23;;;;;;;;;;;;;;;19.07;96.45;95179.81;5074281;28;1983;-47
2022/07/31 05:05:49;;;;;;;;;;;;;;;19.09;96.59;95180.44;5074301;28;1025;-47
2022/07/31 05:08:15;;;;;;;;;;;;;;;19.17;94.43;95182.06;5074153;28;1021;-47
2022/07/31 05:13:25;;;;;;;;;;;;;;;19.18;95.91;95167.44;5074036;28;1025;-47
2022/07/31 05:15:51;;;;;;;;;;;;;;;19.29;97.17;95170.34;5074071;28;1987;-47
2022/07/31 05:18:17;;;;;;;;;;;;;;;19.18;95.52;95176.44;5073899;28;1101;-47
2022/07/31 05:20:43;;;;;;;;;;;;;;;19.14;96.23;95182.47;5073532;28;1024;-47
2022/07/31 05:23:09;;;;;;;;;;;;;;;19.08;98.39;95176.91;5073714;28;1342;-47
2022/07/31 05:25:35;;;;;;;;;;;;;;;19.16;95.51;95170.41;5074085;28;962;-47
2022/07/31 05:28:01;;;;;;;;;;;;;;;19.22;97.38;95180.38;5073761;28;952;-47
2022/07/31 05:30:27;;;;;;;;;;;;;;;19.30;97.90;95182.84;5073842;28;1082;-47
2022/07/31 05:32:53;;;;;;;;;;;;;;;19.26;97.25;95186.22;5073875;28;1027;-47
2022/07/31 05:35:19;;;;;;;;;;;;;;;19.24;97.38;95191.84;5073841;28;1913;-50
2022/07/31 05:37:45;;;;;;;;;;;;;;;19.15;97.05;95190.41;5073735;28;989;-47
2022/07/31 05:40:11;;;;;;;;;;;;;;;19.22;98.48;95196.63;5073730;28;1056;-47
2022/07/31 05:42:37;;;;;;;;;;;;;;;19.20;98.19;95196.03;5074214;28;1210;-47
2022/07/31 05:45:03;;;;;;;;;;;;;;;19.31;96.69;95199.94;5093795;28;968;-47
2022/07/31 05:47:29;;;;;;;;;;;;;;;19.26;97.28;95199.75;5093958;28;1098;-47
2022/07/31 05:49:55;;;;;;;;;;;;;;;19.28;95.83;95192.25;5094038;28;978;-47
2022/07/31 05:52:21;;;;;;;;;;;;;;;19.40;96.46;95193.22;5093564;28;1083;-47
2022/07/31 05:54:47;;;;;;;;;;;;;;;19.59;94.48;95207.75;5093695;28;1984;-47
2022/07/31 05:57:13;;;;;;;;;;;;;;;19.52;94.81;95201.53;5093477;28;973;-47
2022/07/31 05:59:39;;;;;;;;;;;;;;;19.53;95.56;95207.78;5093695;28;933;-48
2022/07/31 06:02:05;;;;;;;;;;;;;;;19.58;95.07;95199.81;5093608;28;1013;-48
2022/07/31 06:05:02;;;;;;;;;;;;;;;19.67;94.27;95204.78;5094072;28;1059;-47
2022/07/31 06:07:28;;;;;;;;;;;;;;;19.65;96.36;95206.91;5093452;28;1103;-47
2022/07/31 06:09:54;;;;;;;;;;;;;;;19.80;96.37;95201.19;5093572;28;978;-47
2022/07/31 06:12:20;;;;;;;;;;;;;;;19.88;94.77;95195.53;5093265;28;1991;-47
2022/07/31 06:14:46;;;;;;;;;;;;;;;19.97;93.33;95192.53;5093645;28;1905;-47
2022/07/31 06:17:12;;;;;;;;;;;;;;;20.01;94.71;95193.75;5093361;28;1154;-47
2022/07/31 06:19:38;;;;;;;;;;;;;;;20.25;94.67;95198.41;5093393;28;1092;-47
2022/07/31 06:22:04;;;;;;;;;;;;;;;20.41;92.23;95201.63;5093349;28;1011;-47
2022/07/31 06:24:33;;;;;;;;;;;;;;;20.64;93.48;95195.59;5093269;28;1008;-47
2022/07/31 06:27:00;;;;;;;;;;;;;;;21.00;91.38;95199.44;5093355;28;1045;-48
2022/07/31 06:29:30;;;;;;;;;;;;;;;21.04;91.34;95196.06;5093049;28;929;-48
2022/07/31 06:31:56;;;;;;;;;;;;;;;21.11;91.64;95201.41;5096180;28;1066;-47
2022/07/31 06:34:22;;;;;;;;;;;;;;;21.33;90.98;95193.63;5097320;28;1898;-48
2022/07/31 06:36:48;;;;;;;;;;;;;;;21.54;88.30;95192.38;5097543;28;972;-47
2022/07/31 06:39:14;;;;;;;;;;;;;;;21.82;87.99;95186.34;5097084;28;1367;-47
2022/07/31 06:41:45;;;;;;;;;;;;;;;22.05;85.64;95190.22;5097371;28;1957;-47
2022/07/31 06:44:12;;;;;;;;;;;;;;;22.11;83.20;95185.72;5083459;28;1150;-48
2022/07/31 06:46:38;;;;;;;;;;;;;;;22.07;83.80;95177.19;5077051;28;1912;-47
2022/07/31 06:49:04;;;;;;;;;;;;;;;22.39;85.20;95185.13;5076834;28;1015;-47
2022/07/31 06:51:30;;;;;;;;;;;;;;;22.50;84.69;95188.91;5076948;28;978;-48
2022/07/31 06:53:56;;;;;;;;;;;;;;;22.52;82.53;95187.63;5058800;28;1089;-48
2022/07/31 06:56:22;;;;;;;;;;;;;;;22.69;86.15;95179.59;5076900;28;1910;-47
2022/07/31 06:58:48;;;;;;;;;;;;;;;22.66;83.95;95184.69;5076608;28;1025;-48
2022/07/31 07:01:14;;;;;;;;;;;;;;;22.82;84.70;95175.78;5076823;28;953;-48
2022/07/31 07:03:40;;;;;;;;;;;;;;;22.95;84.39;95178.25;5076472;28;1279;-47
2022/07/31 07:06:06;;;;;;;;;;;;;;;23.06;82.93;95170.38;5076578;28;1029;-47
2022/07/31 07:08:33;;;;;;;;;;;;;;;23.17;82.75;95175.78;5076329;28;992;-47
2022/07/31 07:10:59;;;;;;;;;;;;;;;23.29;83.12;95183.94;5076779;28;1096;-47
2022/07/31 07:13:25;;;;;;;;;;;;;;;23.45;79.86;95185.13;5076552;28;1040;-47
2022/07/31 07:15:51;;;;;;;;;;;;;;;23.44;80.84;95183.44;5076561;28;1926;-48
2022/07/31 07:18:17;;;;;;;;;;;;;;;23.49;81.13;95186.28;5076134;28;1084;-47
2022/07/31 07:20:43;;;;;;;;;;;;;;;23.71;82.07;95182.91;5076405;28;983;-48
2022/07/31 07:23:09;;;;;;;;;;;;;;;23.92;79.20;95175.97;5075981;28;1029;-47
2022/07/31 07:25:35;;;;;;;;;;;;;;;23.61;78.06;95174.50;5076524;28;1057;-47
2022/07/31 07:28:01;;;;;;;;;;;;;;;23.74;79.91;95172.31;5076006;28;1919;-47
2022/07/31 07:30:27;;;;;;;;;;;;;;;23.76;79.22;95181.09;5076496;28;970;-47
2022/07/31 07:32:53;;;;;;;;;;;;;;;23.83;82.07;95172.81;5076199;28;994;-47
2022/07/31 07:35:20;;;;;;;;;;;;;;;24.04;81.00;95174.00;5075869;28;1910;-47
2022/07/31 07:37:47;;;;;;;;;;;;;;;24.14;76.83;95171.47;5076010;28;1082;-47
2022/07/31 07:40:13;;;;;;;;;;;;;;;24.09;78.37;95171.38;5075993;28;962;-47
2022/07/31 07:42:39;;;;;;;;;;;;;;;24.23;77.64;95174.63;5076482;28;1162;-47
2022/07/31 07:45:05;;;;;;;;;;;;;;;24.39;77.10;95174.88;5096042;28;1146;-47
2022/07/31 07:47:31;;;;;;;;;;;;;;;24.26;78.13;95168.66;5096230;28;978;-47
2022/07/31 07:49:57;;;;;;;;;;;;;;;24.06;76.74;95176.50;5095924;28;1881;-48
2022/07/31 07:52:23;;;;;;;;;;;;;;;23.95;79.33;95167.28;5095856;28;1302;-48
2022/07/31 07:54:49;;;;;;;;;;;;;;;24.15;76.13;95173.13;5095976;28;1914;-48
2022/07/31 07:57:16;;;;;;;;;;;;;;;24.32;77.35;95169.56;5096075;28;978;-48
2022/07/31 07:59:42;;;;;;;;;;;;;;;24.66;78.24;95172.34;5096149;28;1016;-48
2022/07/31 08:02:09;;;;;;;;;;;;;;;24.90;75.81;95167.53;5095771;28;1104;-48
2022/07/31 08:04:35;;;;;;;;;;;;;;;25.11;75.29;95166.75;5095760;28;1020;-48
2022/07/31 08:07:02;;;;;;;;;;;;;;;25.11;75.95;95171.38;5095717;28;1049;-47
2022/07/31 08:09:29;;;;;;;;;;;;;;;25.04;74.41;95168.84;5095810;28;974;-48
2022/07/31 08:11:55;;;;;;;;;;;;;;;25.05;74.95;95170.50;5095508;28;977;-47
2022/07/31 08:14:21;;;;;;;;;;;;;;;25.17;74.65;95161.34;5095415;28;1979;-47
2022/07/31 08:16:47;;;;;;;;;;;;;;;25.35;73.89;95169.28;5095675;28;1114;-47
2022/07/31 08:19:13;;;;;;;;;;;;;;;25.41;71.59;95161.97;5095117;28;1631;-47
2022/07/31 08:21:39;;;;;;;;;;;;;;;25.44;71.80;95173.25;5095448;28;966;-47
2022/07/31 08:24:05;;;;;;;;;;;;;;;25.57;72.98;95162.97;5095172;28;1013;-49
2022/07/31 08:27:22;;;;;;;;;;;;;;;25.73;69.00;95162.09;5095391;28;1985;-48
2022/07/31 08:29:17;;;;;;;;;;;;;;;25.81;72.89;95163.56;5095006;28;1492;-47
2022/07/31 08:31:43;;;;;;;;;;;;;;;25.86;72.54;95167.19;5095342;28;954;-48
2022/07/31 08:34:09;;;;;;;;;;;;;;;25.88;69.06;95162.25;5095403;28;1965;-48
2022/07/31 08:36:36;;;;;;;;;;;;;;;25.98;70.21;95161.56;5095336;28;1988;-48
2022/07/31 08:39:02;;;;;;;;;;;;;;;25.84;70.77;95155.66;5095069;28;1036;-48
2022/07/31 08:41:28;;;;;;;;;;;;;;;26.04;68.51;95163.28;5095233;28;1009;-48
2022/07/31 08:43:55;;;;;;;;;;;;;;;26.09;67.81;95157.84;5083340;28;1231;-48
2022/07/31 08:46:21;;;;;;;;;;;;;;;26.15;69.93;95163.41;5074638;28;1025;-47
2022/07/31 08:48:49;;;;;;;;;;;;;;;26.45;70.66;95165.59;5074573;28;1029;-48
2022/07/31 08:51:15;;;;;;;;;;;;;;;26.55;67.19;95160.19;5074712;28;1044;-48
2022/07/31 08:53:43;;;;;;;;;;;;;;;26.56;65.18;95159.13;5074286;28;981;-48
2022/07/31 08:56:09;;;;;;;;;;;;;;;26.60;68.97;95168.50;5073653;28;1996;-48
2022/07/31 08:58:36;;;;;;;;;;;;;;;26.32;69.20;95155.88;5074573;28;1041;-48
2022/07/31 09:01:02;;;;;;;;;;;;;;;26.17;68.84;95159.31;5074339;28;970;-48
2022/07/31 09:03:28;;;;;;;;;;;;;;;26.39;68.74;95151.03;5074354;28;996;-47
2022/07/31 09:05:54;;;;;;;;;;;;;;;26.50;67.21;95154.66;5074433;28;980;-47
2022/07/31 09:08:20;;;;;;;;;;;;;;;26.73;66.50;95153.53;5074651;28;973;-47
2022/07/31 09:10:46;;;;;;;;;;;;;;;26.59;67.73;95147.63;5074126;28;1881;-48
2022/07/31 09:13:13;;;;;;;;;;;;;;;26.74;66.99;95157.09;5074310;28;960;-48
2022/07/31 09:15:39;;;;;;;;;;;;;;;26.75;66.86;95150.50;5074014;28;1906;-48
2022/07/31 09:18:16;;;;;;;;;;;;;;;26.40;67.35;95149.91;5073875;28;1338;-48
2022/07/31 09:20:52;;;;;;;;;;;;;;;26.53;68.32;95142.34;5074183;28;1003;-48
2022/07/31 09:23:17;;;;;;;;;;;;;;;26.23;68.66;95135.50;5074067;28;1024;-48
2022/07/31 09:25:50;;;;;;;;;;;;;;;25.88;70.96;95140.34;5073829;28;1025;-48
2022/07/31 09:28:16;;;;;;;;;;;;;;;25.60;72.00;95133.19;5073805;28;1039;-48
2022/07/31 09:30:52;;;;;;;;;;;;;;;25.55;70.46;95135.88;5073690;28;1073;-48
2022/07/31 09:33:18;;;;;;;;;;;;;;;25.47;70.57;95139.06;5073993;28;1019;-48
2022/07/31 09:35:48;;;;;;;;;;;;;;;25.47;69.98;95139.88;5073740;28;1931;-48
2022/07/31 09:38:15;;;;;;;;;;;;;;;25.41;70.31;95135.44;5073823;28;985;-48
2022/07/31 09:40:44;;;;;;;;;;;;;;;25.23;71.01;95142.06;5073556;28;1194;-48
2022/07/31 09:43:15;;;;;;;;;;;;;;;25.16;69.85;95143.28;5061099;28;1210;-48
2022/07/31 09:45:43;;;;;;;;;;;;;;;25.06;72.09;95133.88;5093681;28;1059;-48
2022/07/31 09:48:11;;;;;;;;;;;;;;;25.05;71.13;95131.38;5094005;28;1124;-48
2022/07/31 09:50:38;;;;;;;;;;;;;;;25.08;71.32;95134.44;5093751;28;1033;-50
2022/07/31 09:53:05;;;;;;;;;;;;;;;25.33;69.92;95131.22;5093789;28;1000;-49
2022/07/31 09:55:31;;;;;;;;;;;;;;;25.50;72.08;95128.44;5093569;28;2022;-47
2022/07/31 09:57:59;;;;;;;;;;;;;;;25.79;69.31;95128.19;5093665;28;1002;-47
2022/07/31 10:00:25;;;;;;;;;;;;;;;26.27;70.47;95133.91;5093672;28;989;-47
2022/07/31 10:02:55;;;;;;;;;;;;;;;26.31;67.67;95121.31;5093846;28;950;-47
2022/07/31 10:05:25;;;;;;;;;;;;;;;26.12;67.40;95112.66;5075214;28;962;-48
2022/07/31 10:07:52;;;;;;;;;;;;;;;26.46;68.96;95117.88;5093546;28;1013;-48
2022/07/31 10:10:19;;;;;;;;;;;;;;;26.33;65.87;95107.38;5093252;28;1041;-48
2022/07/31 10:12:47;;;;;;;;;;;;;;;26.05;69.30;95112.06;5093772;28;945;-48
2022/07/31 10:15:14;;;;;;;;;;;;;;;25.73;68.14;95115.56;5093470;28;1919;-47
2022/07/31 10:21:23;;;;;;;;;;;;;;;25.03;67.82;95107.00;2846209;28;2194;-53
2022/07/31 10:23:51;;;;;;;;;;;;;;;25.00;68.81;95123.09;5051016;28;1120;-48
2022/07/31 10:26:18;;;;;;;;;;;;;;;24.90;68.22;95124.59;5050665;28;1088;-47
2022/07/31 10:28:45;;;;;;;;;;;;;;;24.94;68.29;95130.41;5050949;28;1085;-47
2022/07/31 10:31:11;;;;;;;;;;;;;;;25.13;68.24;95129.00;5050583;28;1021;-47
2022/07/31 10:33:37;;;;;;;;;;;;;;;25.25;68.36;95130.84;5050894;28;1021;-48
2022/07/31 10:36:13;;;;;;;;;;;;;;;25.42;67.60;95123.41;5050501;28;1996;-47
2022/07/31 10:38:39;;;;;;;;;;;;;;;25.60;65.12;95116.78;5050930;28;981;-48
2022/07/31 10:52:38;;;;;;;;;;;;;;;25.95;66.80;95095.53;4752730;27;1305990;-47
2022/07/31 10:55:15;;;;;;;;;;;;;;;26.26;64.37;95102.13;5131665;28;1095;-47
2022/07/31 10:57:40;;;;;;;;;;;;;;;26.50;63.16;95091.59;5113180;28;1108;-48
2022/07/31 11:00:11;;;;;;;;;;;;;;;26.64;63.99;95092.03;5131447;28;1039;-47
2022/07/31 11:02:37;;;;;;;;;;;;;;;26.29;62.02;95091.47;5131229;28;2138;-48
2022/07/31 11:05:06;;;;;;;;;;;;;;;26.33;62.77;95090.94;5131520;28;1064;-47
2022/07/31 11:07:32;;;;;;;;;;;;;;;26.30;64.16;95093.09;5131251;28;1897;-47
2022/07/31 11:10:11;;;;;;;;;;;;;;;26.13;65.97;95086.13;5131215;28;1060;-48
2022/07/31 11:12:37;;;;;;;;;;;;;;;26.05;64.71;95080.03;5131125;28;1048;-48
2022/07/31 11:15:03;;;;;;;;;;;;;;;26.01;65.44;95075.31;5131083;28;961;-47
2022/07/31 11:17:35;;;;;;;;;;;;;;;25.99;65.56;95072.84;5130936;28;1015;-47
2022/07/31 11:20:01;;;;;;;;;;;;;;;26.08;65.01;95074.00;5131346;28;987;-48
2022/07/31 11:22:27;;;;;;;;;;;;;;;25.96;63.83;95064.31;5130836;28;1063;-48
2022/07/31 11:35:54;;;;;;;;;;;;;;;25.10;66.25;95066.63;4746256;27;2727988;-47
2022/07/31 11:38:25;;;;;;;;;;;;;;;25.36;65.42;95066.94;5151805;27;1044;-47
2022/07/31 11:40:51;;;;;;;;;;;;;;;25.63;65.13;95061.50;5152198;27;1007;-47
2022/07/31 11:43:17;;;;;;;;;;;;;;;25.78;64.68;95057.25;5151790;27;1126;-47
2022/07/31 11:45:44;;;;;;;;;;;;;;;25.88;64.14;95058.19;5152201;27;1007;-48
2022/07/31 11:48:13;;;;;;;;;;;;;;;25.84;64.72;95062.53;5151893;27;1124;-48
2022/07/31 11:50:42;;;;;;;;;;;;;;;25.83;64.13;95060.88;5151883;27;1909;-48
2022/07/31 11:53:09;;;;;;;;;;;;;;;25.83;63.00;95060.88;5151946;27;1044;-48
2022/07/31 11:55:47;;;;;;;;;;;;;;;25.79;64.04;95061.66;5152179;27;953;-47
2022/07/31 11:58:14;;;;;;;;;;;;;;;25.75;63.36;95055.06;5151982;27;1020;-47
2022/07/31 12:00:47;;;;;;;;;;;;;;;25.84;63.11;95062.53;5151941;27;963;-48
2022/07/31 12:03:15;;;;;;;;;;;;;;;26.00;61.40;95051.75;5151489;27;1004;-48
2022/07/31 12:05:47;;;;;;;;;;;;;;;26.13;62.43;95047.75;5152024;27;1173;-47
2022/07/31 12:08:14;;;;;;;;;;;;;;;26.10;61.15;95052.69;5151623;27;969;-47
2022/07/31 12:10:40;;;;;;;;;;;;;;;26.15;61.65;95051.06;5151680;27;1918;-47
2022/07/31 12:13:13;;;;;;;;;;;;;;;26.09;62.43;95047.44;5151318;27;1207;-48
2022/07/31 12:15:39;;;;;;;;;;;;;;;26.10;63.88;95040.88;5151513;27;1066;-47
2022/07/31 12:18:05;;;;;;;;;;;;;;;25.92;62.35;95039.38;5151150;27;971;-47
2022/07/31 12:20:32;;;;;;;;;;;;;;;25.91;61.57;95029.44;5151689;27;973;-48
2022/07/31 12:22:58;;;;;;;;;;;;;;;25.86;62.19;95024.75;5151416;27;928;-47
2022/07/31 12:25:25;;;;;;;;;;;;;;;25.93;62.10;95019.09;5151398;27;961;-48
2022/07/31 12:27:54;;;;;;;;;;;;;;;25.99;62.55;95018.06;5151108;27;1024;-48
2022/07/31 12:30:23;;;;;;;;;;;;;;;26.01;61.24;95015.03;5151104;27;1918;-47
2022/07/31 12:32:50;;;;;;;;;;;;;;;26.08;63.88;95007.44;5151087;27;1003;-47
2022/07/31 12:35:16;;;;;;;;;;;;;;;26.13;61.23;95010.22;5138864;27;1190;-48
2022/07/31 12:37:46;;;;;;;;;;;;;;;26.12;61.05;95005.81;5130572;28;1028;-48
2022/07/31 12:40:25;;;;;;;;;;;;;;;26.08;62.02;95001.94;5130487;28;1052;-48
2022/07/31 12:51:01;;;;;;;;;;;;;;;25.48;63.94;95007.44;4725036;27;2449443;-47
2022/07/31 12:53:28;;;;;;;;;;;;;;;25.74;63.94;95002.19;5152122;27;1072;-47
2022/07/31 12:55:55;;;;;;;;;;;;;;;25.92;64.19;95000.19;5152245;27;1090;-47
2022/07/31 12:58:21;;;;;;;;;;;;;;;26.11;60.44;94995.97;5151889;27;1015;-47
2022/07/31 13:00:47;;;;;;;;;;;;;;;26.14;62.98;94986.38;5152224;27;1099;-47
2022/07/31 13:03:13;;;;;;;;;;;;;;;26.07;60.54;94995.66;5151953;27;1211;-48
2022/07/31 13:05:39;;;;;;;;;;;;;;;25.98;59.17;94990.94;5152010;27;1909;-48
2022/07/31 13:08:07;;;;;;;;;;;;;;;26.06;61.40;94979.47;5151659;27;958;-47
2022/07/31 13:10:33;;;;;;;;;;;;;;;26.13;62.21;94984.75;5152238;27;1015;-47
2022/07/31 13:13:00;;;;;;;;;;;;;;;26.12;62.19;94981.16;5151820;27;1039;-48
2022/07/31 13:15:29;;;;;;;;;;;;;;;25.94;60.94;94976.13;5151907;27;965;-48
2022/07/31 13:18:00;;;;;;;;;;;;;;;25.94;59.38;94976.13;5151908;27;956;-48
2022/07/31 13:20:26;;;;;;;;;;;;;;;26.04;60.82;94973.44;5151650;27;1008;-48
2022/07/31 13:22:52;;;;;;;;;;;;;;;26.15;61.31;94977.91;5151639;27;1019;-47
2022/07/31 13:25:19;;;;;;;;;;;;;;;26.17;60.82;94972.16;5151540;27;1905;-48
2022/07/31 13:27:45;;;;;;;;;;;;;;;26.24;62.11;94972.78;5151763;27;1033;-47
2022/07/31 13:30:12;;;;;;;;;;;;;;;26.43;61.59;94965.75;5151434;27;953;-47
2022/07/31 13:32:38;;;;;;;;;;;;;;;26.47;59.56;94958.66;5151585;27;1016;-47
2022/07/31 13:35:04;;;;;;;;;;;;;;;26.54;59.30;94963.91;5151255;27;1027;-47
2022/07/31 13:37:30;;;;;;;;;;;;;;;26.41;61.71;94962.47;5151367;27;1078;-52